createdAt,value
2022-11-18T00:00:20.915Z,5.70
2022-11-18T00:05:27.756Z,5.60
2022-11-18T00:10:34.933Z,5.30
2022-11-18T00:15:41.622Z,5.40
2022-11-18T00:20:48.470Z,5.50
2022-11-18T00:25:55.234Z,5.80
2022-11-18T00:31:09.130Z,5.90
2022-11-18T00:36:14.846Z,6.00
2022-11-18T00:41:21.228Z,6.00
2022-11-18T00:46:28.204Z,5.60
2022-11-18T00:51:35.175Z,5.60
2022-11-18T00:56:42.039Z,5.50
2022-11-18T01:01:49.903Z,5.50
2022-11-18T01:06:57.128Z,5.60
2022-11-18T01:12:23.586Z,5.50
2022-11-18T01:17:33.423Z,5.70
2022-11-18T01:22:40.212Z,5.70
2022-11-18T01:27:47.598Z,5.50
2022-11-18T01:32:54.456Z,5.40
2022-11-18T01:38:01.511Z,5.50
2022-11-18T01:43:21.543Z,5.20
2022-11-18T01:48:34.908Z,5.20
2022-11-18T01:53:46.111Z,5.30
2022-11-18T01:58:56.923Z,5.10
2022-11-18T02:04:03.739Z,5.20
2022-11-18T02:09:11.320Z,5.10
2022-11-18T02:14:24.030Z,5.10
2022-11-18T02:19:50.055Z,5.20
2022-11-18T02:25:18.720Z,5.20
2022-11-18T02:30:25.644Z,5.20
2022-11-18T02:35:51.418Z,5.10
2022-11-18T02:41:11.039Z,5.10
2022-11-18T02:46:22.248Z,5.10
2022-11-18T02:51:31.672Z,5.00
2022-11-18T02:56:39.037Z,4.90
2022-11-18T03:01:45.826Z,4.80
2022-11-18T03:06:59.658Z,4.80
2022-11-18T03:12:16.535Z,4.80
2022-11-18T03:17:30.288Z,4.80
2022-11-18T03:22:59.192Z,4.90
2022-11-18T03:28:19.348Z,5.00
2022-11-18T03:33:30.662Z,5.10
2022-11-18T03:38:41.366Z,5.10
2022-11-18T03:43:52.483Z,5.10
2022-11-18T03:49:01.273Z,5.10
2022-11-18T03:54:18.105Z,5.00
2022-11-18T03:59:34.695Z,4.90
2022-11-18T04:04:42.739Z,5.10
2022-11-18T04:09:54.000Z,5.10
2022-11-18T04:15:01.951Z,5.10
2022-11-18T04:20:11.290Z,5.10
2022-11-18T04:25:18.267Z,5.10
2022-11-18T04:30:25.079Z,5.30
2022-11-18T04:35:32.009Z,5.30
2022-11-18T04:40:39.122Z,5.20
2022-11-18T04:45:46.331Z,5.40
2022-11-18T04:50:53.130Z,5.20
2022-11-18T04:56:08.497Z,5.30
2022-11-18T05:01:15.365Z,5.40
2022-11-18T05:06:22.847Z,5.40
2022-11-18T05:11:47.901Z,5.40
2022-11-18T05:16:55.372Z,5.40
2022-11-18T05:22:02.183Z,5.50
2022-11-18T05:27:08.901Z,5.50
2022-11-18T05:32:15.628Z,5.60
2022-11-18T05:37:22.350Z,5.50
2022-11-18T05:42:47.122Z,5.60
2022-11-18T05:48:05.004Z,5.70
2022-11-18T05:53:12.028Z,5.90
2022-11-18T05:58:19.586Z,5.70
2022-11-18T06:03:31.319Z,5.70
2022-11-18T06:08:48.695Z,5.70
2022-11-18T06:14:00.186Z,5.70
2022-11-18T06:19:07.691Z,5.90
2022-11-18T06:24:15.501Z,5.80
2022-11-18T06:29:27.749Z,5.80
2022-11-18T06:34:35.522Z,5.80
2022-11-18T06:39:40.242Z,5.90
2022-11-18T06:44:47.083Z,5.90
2022-11-18T06:49:53.892Z,6.00
2022-11-18T06:55:02.653Z,6.00
2022-11-18T07:00:10.831Z,6.00
2022-11-18T07:05:18.026Z,6.20
2022-11-18T07:10:24.667Z,6.20
2022-11-18T07:15:31.612Z,6.20
2022-11-18T07:20:38.463Z,6.30
2022-11-18T07:25:45.576Z,6.50
2022-11-18T07:30:53.151Z,6.40
2022-11-18T07:36:06.027Z,6.30
2022-11-18T07:41:19.856Z,6.20
2022-11-18T07:46:29.784Z,6.00
2022-11-18T07:51:39.714Z,5.80
2022-11-18T07:56:46.781Z,5.40
2022-11-18T08:01:54.082Z,5.70
2022-11-18T08:07:01.096Z,5.80
2022-11-18T08:12:08.992Z,5.60
2022-11-18T08:17:15.711Z,5.30
2022-11-18T08:22:22.607Z,5.40
2022-11-18T08:27:29.414Z,5.50
2022-11-18T08:32:36.503Z,5.70
2022-11-18T08:37:44.031Z,5.80
2022-11-18T08:42:51.359Z,5.90
2022-11-18T08:47:58.211Z,5.90
2022-11-18T08:53:04.980Z,5.70
2022-11-18T08:58:11.860Z,5.70
2022-11-18T09:03:19.022Z,5.60
2022-11-18T09:08:26.891Z,5.70
2022-11-18T09:14:00.574Z,5.70
2022-11-18T09:18:42.895Z,5.50
2022-11-18T09:23:50.273Z,5.50
2022-11-18T09:28:57.231Z,5.60
2022-11-18T09:34:04.352Z,5.80
2022-11-18T09:39:11.164Z,6.10
2022-11-18T09:44:48.220Z,6.20
2022-11-18T09:50:47.982Z,6.10
2022-11-18T09:55:23.711Z,5.90
2022-11-18T10:00:32.334Z,6.10
2022-11-18T10:05:55.499Z,6.20
2022-11-18T10:11:18.680Z,6.30
2022-11-18T10:16:55.162Z,6.30
2022-11-18T10:22:30.195Z,6.40
2022-11-18T10:27:43.955Z,6.60
2022-11-18T10:33:25.171Z,6.80
2022-11-18T10:38:32.066Z,6.80
2022-11-18T10:43:57.856Z,6.80
2022-11-18T10:49:17.884Z,6.90
2022-11-18T10:54:26.092Z,7.10
2022-11-18T10:59:53.689Z,7.20
2022-11-18T11:05:04.960Z,7.10
2022-11-18T11:10:16.233Z,7.30
2022-11-18T11:15:35.933Z,7.40
2022-11-18T11:20:43.125Z,7.30
2022-11-18T11:31:46.745Z,7.20
2022-11-18T11:37:12.599Z,7.40
2022-11-18T11:42:46.260Z,7.30
2022-11-18T11:48:06.088Z,7.40
2022-11-18T11:53:22.985Z,7.30
2022-11-18T11:58:53.125Z,7.30
2022-11-18T12:04:19.410Z,7.30
2022-11-18T12:09:40.773Z,7.40
2022-11-18T12:15:02.922Z,7.50
2022-11-18T12:20:42.924Z,7.70
2022-11-18T12:25:53.667Z,8.00
2022-11-18T12:31:24.481Z,8.20
2022-11-18T12:36:40.741Z,8.30
2022-11-18T12:42:12.984Z,8.30
2022-11-18T12:47:45.154Z,8.40
2022-11-18T12:52:53.410Z,8.40
2022-11-18T12:58:00.302Z,8.40
2022-11-18T13:03:07.575Z,8.30
2022-11-18T13:08:15.422Z,8.20
2022-11-18T13:13:29.587Z,7.80
2022-11-18T13:18:36.313Z,7.70
2022-11-18T13:24:00.451Z,7.80
2022-11-18T13:29:26.935Z,7.90
2022-11-18T13:34:37.519Z,7.80
2022-11-18T13:39:49.547Z,7.70
2022-11-18T13:45:04.399Z,7.50
2022-11-18T13:50:24.039Z,7.50
2022-11-18T13:55:35.221Z,7.40
2022-11-18T14:00:42.067Z,7.50
2022-11-18T14:05:56.080Z,7.60
2022-11-18T14:11:04.026Z,7.30
2022-11-18T14:16:24.092Z,7.40
2022-11-18T14:21:38.695Z,7.40
2022-11-18T14:26:45.843Z,7.40
2022-11-18T14:32:18.073Z,7.20
2022-11-18T14:37:24.910Z,7.10
2022-11-18T14:42:31.555Z,7.20
2022-11-18T14:47:39.179Z,7.20
2022-11-18T14:52:45.959Z,7.20
2022-11-18T14:57:52.675Z,7.10
2022-11-18T15:02:59.531Z,6.80
2022-11-18T15:08:06.781Z,6.90
2022-11-18T15:13:13.428Z,6.80
2022-11-18T15:18:20.174Z,6.80
2022-11-18T15:23:29.745Z,6.90
2022-11-18T15:28:35.197Z,6.80
2022-11-18T15:33:41.877Z,6.90
2022-11-18T15:38:49.501Z,6.80
2022-11-18T15:43:59.583Z,6.80
2022-11-18T15:49:09.350Z,6.70
2022-11-18T15:54:15.369Z,6.60
2022-11-18T15:59:22.141Z,6.70
2022-11-18T16:04:28.910Z,6.90
2022-11-18T16:09:53.317Z,6.80
2022-11-18T16:15:00.395Z,6.80
2022-11-18T16:20:07.693Z,6.80
2022-11-18T16:25:14.717Z,6.80
2022-11-18T16:30:39.216Z,6.80
2022-11-18T16:35:50.351Z,6.80
2022-11-18T16:41:01.995Z,6.90
2022-11-18T16:46:12.048Z,6.80
2022-11-18T16:51:23.729Z,6.70
2022-11-18T16:56:33.940Z,6.70
2022-11-18T17:01:40.997Z,6.70
2022-11-18T17:06:47.760Z,6.70
2022-11-18T17:11:56.246Z,6.70
2022-11-18T17:17:03.026Z,6.60
2022-11-18T17:22:09.915Z,6.70
2022-11-18T17:27:16.606Z,6.70
2022-11-18T17:32:23.462Z,6.70
2022-11-18T17:37:32.368Z,6.60
2022-11-18T17:42:39.272Z,6.50
2022-11-18T17:47:45.966Z,6.60
2022-11-18T17:52:52.689Z,6.40
2022-11-18T17:58:02.440Z,6.40
2022-11-18T18:03:09.534Z,6.30
2022-11-18T18:08:16.461Z,6.20
2022-11-18T18:13:40.910Z,6.10
2022-11-18T18:18:46.517Z,6.00
2022-11-18T18:23:53.091Z,5.80
2022-11-18T18:29:00.807Z,5.90
2022-11-18T18:34:07.768Z,5.80
2022-11-18T18:39:14.451Z,5.80
2022-11-18T18:44:21.412Z,5.90
2022-11-18T18:49:28.424Z,5.70
2022-11-18T18:54:35.094Z,5.70
2022-11-18T18:59:41.810Z,5.70
2022-11-18T19:04:48.761Z,5.50
2022-11-18T19:09:55.886Z,5.60
2022-11-18T19:15:02.981Z,5.80
2022-11-18T19:20:30.698Z,5.70
2022-11-18T19:25:37.815Z,5.70
2022-11-18T19:30:44.698Z,5.70
2022-11-18T19:35:52.262Z,5.60
2022-11-18T19:41:03.404Z,5.90
2022-11-18T19:46:10.761Z,5.90
2022-11-18T19:51:18.087Z,6.00
2022-11-18T19:56:25.348Z,6.00
2022-11-18T20:01:33.907Z,6.00
2022-11-18T20:06:40.760Z,6.00
2022-11-18T20:11:47.975Z,6.00
2022-11-18T20:16:54.939Z,6.30
2022-11-18T20:22:02.046Z,6.30
2022-11-18T20:27:08.791Z,6.30
2022-11-18T20:32:15.555Z,6.20
2022-11-18T20:37:27.719Z,6.30
2022-11-18T20:42:48.780Z,6.30
2022-11-18T20:47:56.100Z,6.10
2022-11-18T20:53:02.790Z,5.70
2022-11-18T20:58:09.770Z,6.00
2022-11-18T21:03:16.660Z,5.90
2022-11-18T21:08:23.745Z,6.00
2022-11-18T21:13:48.162Z,6.00
2022-11-18T21:18:53.718Z,5.90
2022-11-18T21:24:02.773Z,5.80
2022-11-18T21:29:12.273Z,5.90
2022-11-18T21:34:20.869Z,5.80
2022-11-18T21:39:27.842Z,5.80
2022-11-18T21:44:34.587Z,5.90
2022-11-18T21:49:41.661Z,5.80
2022-11-18T21:54:48.621Z,5.60
2022-11-18T21:59:55.557Z,5.60
2022-11-18T22:05:04.160Z,5.70
2022-11-18T22:10:11.618Z,5.50
2022-11-18T22:15:18.569Z,5.50
2022-11-18T22:20:26.245Z,5.20
2022-11-18T22:25:33.985Z,5.10
2022-11-18T22:30:40.997Z,5.10
2022-11-18T22:35:47.847Z,5.00
2022-11-18T22:40:56.151Z,4.90
2022-11-18T22:46:08.572Z,5.00
2022-11-18T22:51:15.587Z,5.10
2022-11-18T22:56:23.744Z,4.90
2022-11-18T23:01:30.553Z,4.70
2022-11-18T23:06:37.324Z,4.80
2022-11-18T23:12:01.844Z,4.80
2022-11-18T23:17:08.792Z,4.60
2022-11-18T23:22:16.699Z,4.70
2022-11-18T23:27:23.523Z,4.80
2022-11-18T23:32:30.274Z,4.70
2022-11-18T23:37:37.287Z,4.40
2022-11-18T23:42:44.203Z,4.50
2022-11-18T23:47:51.026Z,4.50
2022-11-18T23:52:57.890Z,4.30
2022-11-18T23:58:04.923Z,4.30
